September 28, 2022

Time Code Weather Temp. Visibility Ceiling Wind METAR/SPECI
04:20
L
4 °C 0 m - 010° 010° 2 kt METAR ETNT 280220Z AUTO 01002KT //// // ////// 04/04 Q0994 ///
03:20
L
5 °C 0 m - 010° 010° 3 kt METAR ETNT 280120Z AUTO 01003KT //// // ////// 05/05 Q0994 ///
02:20
L
6 °C 0 m - 010° 010° 3 kt METAR ETNT 280020Z AUTO 01003KT //// // ////// 06/06 Q0994 ///
01:20
L
7 °C 0 m - 010° 010° 2 kt METAR ETNT 272320Z AUTO 01002KT //// // ////// 07/07 Q0995 ///
00:20
L
7 °C 0 m - 010° 010° 3 kt METAR ETNT 272220Z AUTO 01003KT //// // ////// 07/07 Q0995 ///

September 27, 2022

Time Code Weather Temp. Visibility Ceiling Wind METAR/SPECI
23:20
L
8 °C 0 m - 010° 010° 5 kt METAR ETNT 272120Z AUTO 01005KT //// // ////// 08/07 Q0995 ///
22:20
V
8 °C 10 km+ 6,000 ft 010° 010° 3 kt METAR ETNT 272020Z 01003KT 9999 MIFG BKN060 BKN130 08/08 Q0995 BLACKBLU
21:20
V
8 °C 10 km+ - 010° 010° 2 kt METAR ETNT 271920Z 01002KT 9999 FEW030 SCT120 08/08 Q0995 BLACKBLU+
20:20
V
9 °C 10 km+ 20,000 ft 010° 010° 4 kt METAR ETNT 271820Z 01004KT 9999 FEW020 SCT050 BKN200 09/08 Q0995 BLACKBLU+
19:20
V
9 °C 10 km+ 20,000 ft 010° 010° 4 kt METAR ETNT 271720Z 01004KT 9999 FEW020 SCT050 BKN200 09/09 Q0995 BLACKBLU+
18:20
V
10 °C 10 km+ 5,000 ft 010° 010° 4 kt METAR ETNT 271620Z 01004KT 9999 SCT020 BKN050 10/09 Q0995 BLACKBLU
17:20
V
9 °C 10 km+ 5,000 ft 010° 010° 4 kt METAR ETNT 271520Z 01004KT 9999 -SHRA SCT020 BKN050 09/09 Q0995 BLACKBLU
16:20
V
10 °C 10 km+ 5,000 ft 010° 010° 6 kt METAR ETNT 271420Z 01006KT 9999 SCT020 BKN050 10/09 Q0994 BLACKBLU
15:20
V
10 °C 10 km+ 5,000 ft 010° 010° 4 kt METAR ETNT 271320Z 01004KT 9999 SCT020 BKN050 10/09 Q0994 BLACKBLU
14:20
V
11 °C 10 km+ 5,000 ft 010° 010° 6 kt METAR ETNT 271220Z 01006KT 9999 FEW020 BKN050 11/09 Q0994 BLACKBLU
13:20
V
11 °C 10 km+ 5,000 ft 010° 010° 5 kt METAR ETNT 271120Z 01005KT 9999 FEW020 BKN050 11/10 Q0994 BLACKBLU
12:20
V
12 °C 10 km+ - 010° 010° 6 kt METAR ETNT 271020Z 01006KT 9999 FEW020 SCT050 12/10 Q0993 BLACKBLU+
11:20
V
10 °C 8 km 5,000 ft 010° 010° 7 kt METAR ETNT 270920Z 01007KT 8000 SCT020 BKN050 10/09 Q0993 BLACKBLU
10:20
M
10 °C 5 km 4,000 ft 010° 010° 5 kt METAR ETNT 270820Z 01005KT 5000 -RA BR SCT016 BKN040 10/09 Q0993 BLACKWHT
09:20
M
9 °C 6 km 4,300 ft 010° 010° 7 kt METAR ETNT 270720Z 01007KT 6000 -RA SCT018 BKN043 09/09 Q0993 BLACKWHT
08:20
M
9 °C 5 km 3,900 ft 010° 010° 8 kt METAR ETNT 270620Z 01008KT 5000 -RA BR SCT020 BKN039 09/09 Q0992 BLACKWHT
08:07
M
10 °C 5 km 4,700 ft 010° 010° 8 kt METAR ETNT 270607Z 01008KT 5000 -RA BR SCT022 BKN047 10/09 Q0992 BLACKWHT
07:20
V
9 °C 8 km 4,700 ft 010° 010° 6 kt METAR ETNT 270520Z 01006KT 8000 -RA FEW015 SCT022 BKN047 09/09 Q0992 BLACKBLU
06:20
V
9 °C 9 km 4,500 ft 010° 010° 4 kt METAR ETNT 270420Z 01004KT 9000 -RA SCT020 BKN045 09/09 Q0991 BLACKBLU
05:20
L
10 °C 0 m - 010° 010° 4 kt METAR ETNT 270320Z AUTO 01004KT //// // ////// 10/09 Q0992 ///
04:20
L
9 °C 0 m - 010° 010° 3 kt METAR ETNT 270220Z AUTO 01003KT //// // ////// 09/09 Q0992 ///
03:20
L
10 °C 0 m - 010° 010° 3 kt METAR ETNT 270120Z AUTO 01003KT //// // ////// 10/10 Q0992 ///
02:20
L
10 °C 0 m - 010° 010° 4 kt METAR ETNT 270020Z AUTO 01004KT //// // ////// 10/10 Q0992 ///
01:20
L
10 °C 0 m - 010° 010° 5 kt METAR ETNT 262320Z AUTO 01005KT //// // ////// 10/10 Q0992 ///
00:20
L
10 °C 0 m - 010° 010° 3 kt METAR ETNT 262220Z AUTO 01003KT //// // ////// 10/10 Q0992 ///

September 26, 2022

Time Code Weather Temp. Visibility Ceiling Wind METAR/SPECI
23:20
L
10 °C 0 m - 010° 010° 3 kt METAR ETNT 262120Z AUTO 01003KT //// // ////// 10/10 Q0992 ///
22:20
V
11 °C 8 km 6,000 ft 020° 020° 5 kt METAR ETNT 262020Z 02005KT 8000 FEW007 SCT024 BKN060 11/11 Q0993 BLACKBLU
21:20
V
11 °C 8 km 6,000 ft 020° 020° 7 kt METAR ETNT 261920Z 02007KT 8000 FEW007 SCT024 BKN060 11/11 Q0993 BLACKBLU
20:20
V
12 °C 10 km+ 8,000 ft 020° 020° 8 kt METAR ETNT 261820Z 02008KT 9999 FEW007 SCT017 BKN080 12/11 Q0993 BLACKBLU
19:20
M
12 °C 10 km+ 1,400 ft 020° 020° 8 kt METAR ETNT 261720Z 02008KT 9999 SCT007 BKN014 12/11 Q0993 BLACKGRN
18:20
M
12 °C 10 km+ 1,300 ft 020° 020° 9 kt METAR ETNT 261620Z 02009KT 9999 SCT007 BKN013 12/11 Q0993 BLACKGRN
17:20
M
12 °C 10 km+ 1,100 ft 020° 020° 9 kt METAR ETNT 261520Z 02009KT 9999 SCT006 BKN011 12/11 Q0993 BLACKGRN
16:20
M
11 °C 6 km 1,200 ft 020° 020° 10 kt METAR ETNT 261420Z 02010KT 6000 -RADZ SCT006 BKN012 11/11 Q0994 BLACKGRN
15:20
I
11 °C 5 km 700 ft 020° 020° 10 kt METAR ETNT 261320Z 02010KT 5000 -RADZ BR BKN007 BKN012 11/11 Q0995 BLACKGRN
14:20
M
11 °C 5 km 1,100 ft 020° 020° 10 kt METAR ETNT 261220Z 02010KT 5000 -RADZ BR SCT008 BKN011 11/11 Q0995 BLACKGRN
14:10
M
11 °C 5 km 1,100 ft 020° 020° 9 kt METAR ETNT 261210Z 02009KT 5000 -RADZ BR SCT008 BKN011 11/11 Q0995 BLACKGRN
13:20
M
11 °C 7 km 4,300 ft 020° 020° 11 kt METAR ETNT 261120Z 02011KT 7000 -RADZ SCT011 BKN043 11/10 Q0996 BLACKWHT
12:20
V
12 °C 10 km+ 5,000 ft 020° 020° 10 kt METAR ETNT 261020Z 02010KT 9999 SCT015 BKN050 12/09 Q0996 BLACKBLU
11:20
V
11 °C 10 km+ 5,000 ft 020° 020° 12 - 22 kt METAR ETNT 260920Z 02012G22KT 9999 SCT013 BKN050 BKN100 11/09 Q0997 BLACKBLU
10:20
V
11 °C 10 km+ 5,000 ft 020° 020° 9 kt METAR ETNT 260820Z 02009KT 9999 -RA FEW010 BKN050 BKN100 11/09 Q0998 BLACKBLU
09:20
V
11 °C 9 km 10,000 ft 020° 020° 9 kt METAR ETNT 260720Z 02009KT 9000 -RA FEW010 SCT060 BKN100 11/09 Q0999 BLACKBLU
08:20
V
10 °C 9 km 5,000 ft 020° 020° 9 kt METAR ETNT 260620Z 02009KT 9000 -RA FEW010 BKN050 10/10 Q0999 BLACKBLU
07:20
V
10 °C 10 km+ 4,000 ft 020° 020° 9 kt METAR ETNT 260520Z 02009KT 9999 -RA FEW010 BKN040 10/10 Q1000 BLACKBLU
06:20
V
10 °C 10 km+ 6,000 ft 020° 020° 9 kt METAR ETNT 260420Z 02009KT 9999 -RA BKN060 10/09 Q1001 BLACKBLU
05:20
L
11 °C 0 m - 020° 020° 10 kt METAR ETNT 260320Z AUTO 02010KT //// // ////// 11/09 Q1002 ///
04:20
L
11 °C 0 m - 020° 020° 7 kt METAR ETNT 260220Z AUTO 02007KT //// // ////// 11/08 Q1003 ///
03:20
L
10 °C 0 m - 360° 360° 7 kt METAR ETNT 260120Z AUTO 36007KT //// // ////// 10/08 Q1004 ///
02:20
L
10 °C 0 m - 360° 360° 5 kt METAR ETNT 260020Z AUTO 36005KT //// // ////// 10/08 Q1005 ///
01:20
L
10 °C 0 m - 360° 360° 5 kt METAR ETNT 252320Z AUTO 36005KT //// // ////// 10/08 Q1006 ///
00:20
L
10 °C 0 m - 360° 360° 4 kt METAR ETNT 252220Z AUTO 36004KT //// // ////// 10/08 Q1007 ///
Older data

We and third parties follow your internet behavior on our website with cookies. If you continue, we assume you agree with our cookie policy. Learn more